Time;durP1;ratioP1;P1;durP2;ratioP2;P2;SDS_P1;SDS_P2;PMS_P1;PMS_P2;Temp;Humidity;BMP_temperature;BMP_pressure;BME280_temperature;BME280_humidity;BME280_pressure;Samples;Min_cycle;Max_cycle;Signal;HPM_P1;HPM_P2
2023/06/12 00:02:31;;;;;;;7.67;4.93;;;;;;;12.07;96.69;97792.06;6241844;28;20242;-48
2023/06/12 00:05:33;;;;;;;7.77;5.83;;;;;;;12.03;97.04;97783.75;6236657;28;20235;-46
2023/06/12 00:08:41;;;;;;;5.73;5.23;;;;;;;11.99;97.06;97790.63;6236112;28;20220;-48
2023/06/12 00:11:43;;;;;;;7.30;5.27;;;;;;;11.99;97.27;97787.16;6235704;28;20619;-46
2023/06/12 00:14:45;;;;;;;6.37;4.83;;;;;;;11.94;97.05;97787.91;6243231;28;20239;-46
2023/06/12 00:17:48;;;;;;;5.20;4.70;;;;;;;11.69;97.16;97753.66;6246016;28;20232;-46
2023/06/12 00:20:50;;;;;;;8.00;4.70;;;;;;;11.84;97.43;97782.44;6244424;28;20241;-49
2023/06/12 00:23:52;;;;;;;7.03;4.70;;;;;;;11.89;97.22;97795.84;6243547;28;20238;-46
2023/06/12 00:26:54;;;;;;;7.93;5.43;;;;;;;11.84;97.21;97791.25;6244081;28;20246;-45
2023/06/12 00:29:57;;;;;;;9.20;5.13;;;;;;;11.81;97.40;97783.69;6241438;28;20239;-46
2023/06/12 00:33:00;;;;;;;9.90;5.37;;;;;;;11.59;97.56;97756.19;6242491;28;20377;-45
2023/06/12 00:36:03;;;;;;;9.57;5.10;;;;;;;11.65;97.54;97768.53;6242732;28;20768;-47
2023/06/12 00:39:06;;;;;;;7.43;5.27;;;;;;;11.70;97.56;97787.28;6241099;28;20223;-46
2023/06/12 00:42:08;;;;;;;6.20;5.40;;;;;;;11.66;97.96;97786.16;6244020;28;20810;-49
2023/06/12 00:45:12;;;;;;;6.17;4.80;;;;;;;11.58;97.97;97779.41;6216109;28;20295;-46
2023/06/12 00:48:15;;;;;;;9.40;5.53;;;;;;;11.58;97.75;97779.41;6225266;28;20317;-47
2023/06/12 00:51:18;;;;;;;4.70;4.30;;;;;;;11.54;98.01;97775.59;6241987;28;20219;-46
2023/06/12 00:54:23;;;;;;;7.00;4.83;;;;;;;11.33;97.88;97753.16;6243419;28;20231;-46
2023/06/12 00:57:27;;;;;;;6.93;4.93;;;;;;;11.35;97.99;97751.06;6244947;28;20255;-46
2023/06/12 01:00:30;;;;;;;5.93;5.33;;;;;;;11.45;98.42;97774.41;6221721;28;20231;-47
2023/06/12 01:03:32;;;;;;;6.77;5.03;;;;;;;11.31;98.44;97757.91;6211335;28;20231;-45
2023/06/12 01:07:10;;;;;;;7.67;5.43;;;;;;;11.38;98.60;97776.44;6210266;28;20231;-47
2023/06/12 01:10:24;;;;;;;5.63;4.90;;;;;;;11.30;98.63;97774.16;6241809;28;20224;-46
2023/06/12 01:13:27;;;;;;;6.37;5.17;;;;;;;11.30;98.52;97780.31;6237884;28;20239;-46
2023/06/12 01:16:31;;;;;;;5.67;5.07;;;;;;;11.28;99.13;97776.25;6243346;28;20853;-48
2023/06/12 01:19:35;;;;;;;6.20;5.30;;;;;;;11.27;98.83;97777.31;6216032;28;20230;-46
2023/06/12 01:22:53;;;;;;;8.27;5.17;;;;;;;11.22;98.86;97778.03;6243088;28;20709;-46
2023/06/12 01:26:18;;;;;;;10.93;5.43;;;;;;;11.20;98.75;97774.81;6206364;28;20236;-47
2023/06/12 01:29:52;;;;;;;8.93;5.67;;;;;;;11.19;99.08;97772.41;6242719;28;20231;-46
2023/06/12 01:33:02;;;;;;;7.33;5.07;;;;;;;11.12;99.09;97767.22;6224041;28;20228;-47
2023/06/12 01:36:12;;;;;;;6.17;5.30;;;;;;;11.09;99.33;97778.38;6239062;28;20238;-46
2023/06/12 01:39:15;;;;;;;5.93;4.97;;;;;;;11.08;99.23;97768.75;6207481;28;20677;-45
2023/06/12 01:42:19;;;;;;;7.60;5.17;;;;;;;11.08;99.31;97768.75;6207158;28;20215;-45
2023/06/12 01:45:21;;;;;;;5.60;5.07;;;;;;;11.07;99.50;97772.47;6242207;28;20234;-47
2023/06/12 01:48:24;;;;;;;5.50;5.00;;;;;;;10.83;99.38;97737.16;6232968;28;20390;-46
2023/06/12 01:51:29;;;;;;;8.43;5.60;;;;;;;10.42;99.10;97672.56;6239937;28;20311;-48
2023/06/12 01:54:33;;;;;;;5.03;4.57;;;;;;;11.04;99.44;97768.44;6232124;28;20231;-46
2023/06/12 01:57:38;;;;;;;7.87;5.10;;;;;;;11.04;99.44;97776.44;6237333;28;20242;-47
2023/06/12 02:00:42;;;;;;;5.80;5.20;;;;;;;10.91;99.65;97755.44;6239403;28;20332;-48
2023/06/12 02:03:48;;;;;;;7.63;5.17;;;;;;;11.06;99.96;97771.66;6223150;28;20231;-48
2023/06/12 02:06:54;;;;;;;5.80;5.30;;;;;;;11.04;99.84;97773.78;6243452;28;20230;-49
2023/06/12 02:09:57;;;;;;;5.20;4.70;;;;;;;11.05;99.75;97779.91;6240063;28;20239;-47
2023/06/12 02:13:00;;;;;;;4.73;4.33;;;;;;;11.01;99.82;97774.25;6240839;28;20320;-46
2023/06/12 02:16:06;;;;;;;5.50;4.87;;;;;;;10.89;99.81;97762.06;6230310;28;20284;-47
2023/06/12 02:19:08;;;;;;;5.30;4.80;;;;;;;11.07;100.00;97789.28;6242402;28;20271;-46
2023/06/12 02:22:10;;;;;;;5.13;4.63;;;;;;;11.07;100.00;97793.81;6242115;28;20245;-46
2023/06/12 02:25:12;;;;;;;6.20;5.10;;;;;;;11.07;100.00;97789.28;6218202;28;20281;-48
2023/06/12 02:28:15;;;;;;;6.20;4.67;;;;;;;11.08;100.00;97788.25;6222904;28;20334;-45
2023/06/12 02:31:17;;;;;;;5.67;5.17;;;;;;;11.12;100.00;97791.22;6240546;28;20277;-47
2023/06/12 02:34:20;;;;;;;5.23;4.73;;;;;;;11.16;100.00;97788.88;6206405;28;20227;-46
2023/06/12 02:37:22;;;;;;;6.67;5.43;;;;;;;11.17;100.00;97785.16;6243015;28;20239;-48
2023/06/12 02:40:28;;;;;;;5.63;5.10;;;;;;;11.14;100.00;97788.34;6222380;28;20716;-46
2023/06/12 02:43:30;;;;;;;6.13;5.23;;;;;;;11.14;100.00;97791.00;6206413;28;20228;-46
2023/06/12 02:46:51;;;;;;;5.93;5.17;;;;;;;11.13;100.00;97792.81;6220246;28;20241;-45
2023/06/12 02:49:53;;;;;;;5.70;5.20;;;;;;;10.95;100.00;97777.91;6236055;28;20232;-47
2023/06/12 02:53:00;;;;;;;5.47;4.97;;;;;;;11.10;100.00;97796.81;6217252;28;20341;-49
2023/06/12 02:56:03;;;;;;;6.10;5.50;;;;;;;11.10;100.00;97796.00;6239566;28;20718;-47
2023/06/12 02:59:05;;;;;;;5.00;4.50;;;;;;;10.85;100.00;97772.41;6207552;28;20239;-49
2023/06/12 03:02:10;;;;;;;5.17;4.67;;;;;;;11.05;100.00;97802.06;6206016;28;20238;-46
2023/06/12 03:05:25;;;;;;;7.37;5.33;;;;;;;10.99;100.00;97795.03;6205986;28;20223;-47
2023/06/12 03:08:31;;;;;;;6.33;4.83;;;;;;;10.93;100.00;97793.31;6241321;28;20235;-47
2023/06/12 03:11:35;;;;;;;5.90;5.30;;;;;;;11.05;100.00;97814.56;6234568;28;20778;-45
2023/06/12 03:14:38;;;;;;;6.00;5.40;;;;;;;11.07;100.00;97815.13;6224012;28;20314;-49
2023/06/12 03:17:40;;;;;;;6.23;5.23;;;;;;;11.05;100.00;97806.56;6237100;28;20239;-46
2023/06/12 03:20:43;;;;;;;5.77;5.27;;;;;;;10.89;100.00;97784.19;6203664;28;20223;-49
2023/06/12 03:23:45;;;;;;;9.57;5.90;;;;;;;11.10;100.00;97812.78;6240508;28;20807;-48
2023/06/12 03:26:47;;;;;;;7.47;5.83;;;;;;;11.14;100.00;97815.78;6238746;28;20235;-46
2023/06/12 03:29:50;;;;;;;6.27;5.63;;;;;;;11.11;100.00;97822.41;6214510;28;20239;-47
2023/06/12 03:32:56;;;;;;;6.10;5.50;;;;;;;11.10;100.00;97818.13;6241766;28;20322;-47
2023/06/12 03:35:59;;;;;;;6.63;5.20;;;;;;;10.98;100.00;97797.91;6220828;28;20228;-46
2023/06/12 03:39:05;;;;;;;5.83;5.33;;;;;;;11.11;100.00;97824.28;6220422;28;20313;-46
2023/06/12 03:42:08;;;;;;;5.70;5.20;;;;;;;11.12;100.00;97828.53;6218955;28;20208;-46
2023/06/12 03:45:19;;;;;;;5.97;5.37;;;;;;;11.08;100.00;97824.75;6235258;28;20225;-46
2023/06/12 03:48:21;;;;;;;5.70;5.13;;;;;;;11.03;100.00;97817.50;6236438;28;20239;-48
2023/06/12 03:51:24;;;;;;;6.23;5.70;;;;;;;10.99;100.00;97821.69;6234910;28;20721;-46
2023/06/12 03:54:26;;;;;;;5.63;5.13;;;;;;;10.96;100.00;97826.69;6236695;28;20241;-45
2023/06/12 03:57:29;;;;;;;5.60;4.93;;;;;;;10.94;100.00;97829.59;6231743;28;20243;-46
2023/06/12 04:00:31;;;;;;;5.90;4.70;;;;;;;10.92;100.00;97829.00;6234635;28;20242;-47
2023/06/12 04:03:34;;;;;;;6.67;5.13;;;;;;;10.90;100.00;97830.31;6205901;28;20239;-45
2023/06/12 04:06:40;;;;;;;5.50;5.00;;;;;;;10.73;100.00;97803.63;6240150;28;20238;-46
2023/06/12 04:09:45;;;;;;;7.07;6.37;;;;;;;10.91;100.00;97827.41;6204343;28;20231;-46
2023/06/12 04:12:47;;;;;;;6.17;5.57;;;;;;;10.88;100.00;97841.19;6239403;28;20242;-46
2023/06/12 04:15:50;;;;;;;5.57;5.07;;;;;;;10.86;100.00;97835.31;6202083;28;20242;-45
2023/06/12 04:18:52;;;;;;;6.20;5.60;;;;;;;10.87;100.00;97834.25;6205237;28;20293;-45
2023/06/12 04:21:54;;;;;;;6.57;5.97;;;;;;;10.82;100.00;97834.16;6234686;28;20321;-46
2023/06/12 04:25:04;;;;;;;7.20;5.20;;;;;;;10.84;100.00;97838.22;6240092;28;20235;-46
2023/06/12 04:28:08;;;;;;;5.97;5.40;;;;;;;10.72;100.00;97826.78;6220085;28;20609;-45
2023/06/12 04:31:10;;;;;;;6.80;5.67;;;;;;;10.78;100.00;97835.69;6204334;28;20238;-46
2023/06/12 04:34:15;;;;;;;12.57;6.63;;;;;;;10.77;100.00;97836.72;6205981;28;21178;-56
2023/06/12 04:37:19;;;;;;;7.53;6.13;;;;;;;10.79;100.00;97840.00;6223510;28;20285;-53
2023/06/12 04:40:24;;;;;;;7.17;6.47;;;;;;;10.77;100.00;97834.06;6237959;28;20234;-52
2023/06/12 04:43:29;;;;;;;6.20;5.70;;;;;;;10.81;100.00;97843.22;6209053;28;20233;-49
2023/06/12 04:46:33;;;;;;;8.63;6.33;;;;;;;10.80;100.00;97847.72;6239473;28;20234;-45
2023/06/12 04:49:41;;;;;;;7.70;6.50;;;;;;;10.84;100.00;97842.75;6233937;28;20220;-47
2023/06/12 04:52:43;;;;;;;7.20;6.50;;;;;;;10.87;100.00;97844.09;6215047;28;20257;-54
2023/06/12 04:55:50;;;;;;;8.33;6.17;;;;;;;10.93;100.00;97845.81;6204657;28;20254;-45
2023/06/12 04:58:53;;;;;;;7.00;6.40;;;;;;;10.97;100.00;97845.09;6223829;28;20322;-49
2023/06/12 05:01:57;;;;;;;7.73;6.27;;;;;;;11.05;100.00;97842.03;6223984;28;20250;-50
2023/06/12 05:05:03;;;;;;;7.07;6.47;;;;;;;11.10;100.00;97846.66;6227801;28;20241;-47
2023/06/12 05:08:06;;;;;;;7.30;6.40;;;;;;;11.13;100.00;97845.34;6244047;28;20232;-47
2023/06/12 05:11:08;;;;;;;7.63;6.80;;;;;;;11.18;100.00;97843.59;6225465;28;20231;-46
2023/06/12 05:14:10;;;;;;;7.00;6.30;;;;;;;11.09;100.00;97829.84;6241095;28;20314;-46
2023/06/12 05:17:13;;;;;;;8.47;6.73;;;;;;;11.29;100.00;97848.03;6225996;28;20701;-45
2023/06/12 05:20:15;;;;;;;7.90;6.63;;;;;;;11.35;100.00;97857.72;6242264;28;20378;-45
2023/06/12 05:23:17;;;;;;;7.20;6.50;;;;;;;11.30;100.00;97838.19;6243217;28;20227;-45
2023/06/12 05:26:20;;;;;;;7.83;6.80;;;;;;;11.50;100.00;97856.38;6222254;28;20326;-45
2023/06/12 05:29:22;;;;;;;7.60;6.83;;;;;;;11.57;100.00;97849.78;6208464;28;20232;-45
2023/06/12 05:32:24;;;;;;;7.33;6.40;;;;;;;11.46;100.00;97820.56;6240732;28;20317;-45
2023/06/12 05:35:27;;;;;;;6.80;6.20;;;;;;;11.74;100.00;97847.13;6241595;28;20230;-46
2023/06/12 05:38:29;;;;;;;7.70;6.13;;;;;;;11.91;100.00;97843.66;6209027;28;20710;-46
2023/06/12 05:41:32;;;;;;;6.77;6.13;;;;;;;11.78;100.00;97812.75;6234543;28;20227;-46
2023/06/12 05:44:34;;;;;;;6.37;5.77;;;;;;;12.21;100.00;97848.56;6242008;28;20237;-45
2023/06/12 05:47:37;;;;;;;7.10;5.50;;;;;;;12.37;99.35;97853.06;6238941;28;20223;-45
2023/06/12 05:50:41;;;;;;;8.27;5.40;;;;;;;12.76;90.29;97855.63;6222879;28;20533;-47
2023/06/12 05:53:47;;;;;;;5.90;4.80;;;;;;;13.12;89.45;97856.81;6223442;28;20751;-46
2023/06/12 05:56:53;;;;;;;7.27;4.43;;;;;;;13.40;87.85;97853.88;6201104;28;20239;-47
2023/06/12 05:59:56;;;;;;;6.13;4.83;;;;;;;13.53;88.10;97855.28;6220960;28;20253;-48
2023/06/12 06:02:58;;;;;;;4.70;4.30;;;;;;;13.78;82.76;97854.66;6212225;28;20231;-47
2023/06/12 06:06:05;;;;;;;5.10;4.43;;;;;;;13.94;83.01;97853.72;6201110;28;20224;-46
2023/06/12 06:09:07;;;;;;;5.20;4.43;;;;;;;14.01;83.85;97852.69;6214782;28;20722;-49
2023/06/12 06:12:10;;;;;;;5.47;4.63;;;;;;;13.93;84.87;97829.84;6198421;28;20222;-47
2023/06/12 06:15:13;;;;;;;4.77;4.33;;;;;;;13.91;85.57;97815.94;6220533;28;20360;-49
2023/06/12 06:18:16;;;;;;;4.80;4.23;;;;;;;14.05;84.65;97859.13;6212936;28;20212;-46
2023/06/12 06:21:19;;;;;;;5.40;4.43;;;;;;;14.08;83.24;97851.34;6215278;28;20212;-47
2023/06/12 06:24:24;;;;;;;6.83;4.77;;;;;;;14.18;82.52;97854.09;6213772;28;20230;-47
2023/06/12 06:27:26;;;;;;;6.53;4.67;;;;;;;14.31;81.60;97854.69;6194908;28;20293;-47
2023/06/12 06:30:29;;;;;;;5.10;3.90;;;;;;;14.35;82.45;97856.59;6216427;28;20236;-45
2023/06/12 06:33:32;;;;;;;5.67;4.47;;;;;;;14.38;77.48;97841.84;6215245;28;20359;-47
2023/06/12 06:36:35;;;;;;;5.00;4.50;;;;;;;14.66;76.29;97860.22;6211895;28;20310;-46
2023/06/12 06:39:39;;;;;;;5.63;4.47;;;;;;;14.77;75.19;97850.31;6214569;28;20581;-47
2023/06/12 06:42:42;;;;;;;7.17;4.70;;;;;;;14.77;75.15;97847.63;6193654;28;20592;-46
2023/06/12 06:45:46;;;;;;;5.60;4.33;;;;;;;14.85;75.31;97849.00;6195765;28;20777;-49
2023/06/12 06:48:49;;;;;;;6.77;4.10;;;;;;;14.85;76.52;97849.00;6198134;28;20627;-46
2023/06/12 06:51:52;;;;;;;6.10;4.30;;;;;;;14.91;77.67;97846.06;6220576;28;20239;-45
2023/06/12 06:54:57;;;;;;;6.20;4.30;;;;;;;14.95;73.03;97835.63;6215436;28;20616;-46
2023/06/12 06:58:01;;;;;;;5.37;3.77;;;;;;;15.14;75.29;97852.81;6215300;28;20240;-47
2023/06/12 07:01:05;;;;;;;8.40;4.10;;;;;;;15.16;76.14;97860.59;6215025;28;20232;-47
2023/06/12 07:04:08;;;;;;;7.57;5.00;;;;;;;15.12;72.87;97825.47;6214797;28;20316;-46
2023/06/12 07:07:13;;;;;;;4.80;4.27;;;;;;;15.45;73.91;97860.88;6197095;28;20584;-46
2023/06/12 07:10:16;;;;;;;8.87;4.97;;;;;;;15.59;73.06;97850.41;6200111;28;20251;-47
2023/06/12 07:13:18;;;;;;;4.87;4.47;;;;;;;15.26;71.90;97803.44;6211778;28;20232;-46
2023/06/12 07:16:26;;;;;;;4.57;4.03;;;;;;;15.64;72.88;97847.75;6212278;28;20732;-47
2023/06/12 07:19:30;;;;;;;5.03;4.00;;;;;;;15.69;74.59;97851.22;6215496;28;20693;-48
2023/06/12 07:22:33;;;;;;;5.33;4.17;;;;;;;16.04;69.90;97848.75;6209347;28;20239;-46
2023/06/12 07:25:35;;;;;;;4.63;4.23;;;;;;;15.95;66.03;97851.19;6214789;28;20235;-46
2023/06/12 07:28:38;;;;;;;5.77;3.90;;;;;;;15.92;67.05;97852.56;6198359;28;20581;-46
2023/06/12 07:31:40;;;;;;;5.20;3.53;;;;;;;15.98;69.18;97853.34;6218554;28;20288;-46
2023/06/12 07:34:42;;;;;;;4.63;4.23;;;;;;;15.96;69.10;97850.13;6213223;28;20236;-49
2023/06/12 07:37:45;;;;;;;3.93;3.53;;;;;;;16.02;69.52;97850.91;6216488;28;20318;-47
2023/06/12 07:40:48;;;;;;;5.47;3.90;;;;;;;15.97;67.89;97857.13;6209965;28;20612;-47
2023/06/12 07:43:50;;;;;;;5.03;3.83;;;;;;;16.06;66.73;97854.66;6214193;28;20235;-46
2023/06/12 07:46:54;;;;;;;6.07;3.67;;;;;;;16.23;63.68;97866.72;6219720;28;20710;-46
2023/06/12 07:49:58;;;;;;;5.83;4.30;;;;;;;16.12;63.85;97858.97;6217268;28;20317;-46
2023/06/12 07:53:01;;;;;;;5.27;4.03;;;;;;;16.15;62.82;97867.25;6214806;28;20798;-46
2023/06/12 07:56:04;;;;;;;8.07;3.60;;;;;;;16.17;66.38;97859.75;6203492;28;20743;-46
2023/06/12 07:59:10;;;;;;;4.83;3.73;;;;;;;16.19;67.43;97862.16;6215947;28;20592;-46
2023/06/12 08:02:28;;;;;;;4.60;3.50;;;;;;;16.05;65.23;97837.72;6239288;28;20258;-46
2023/06/12 08:05:32;;;;;;;5.23;3.40;;;;;;;16.14;66.20;97859.47;6224035;28;20261;-46
2023/06/12 08:08:47;;;;;;;3.97;3.30;;;;;;;16.12;64.88;97867.03;6237005;28;20240;-45
2023/06/12 08:11:52;;;;;;;4.70;3.80;;;;;;;16.03;63.79;97849.84;6206925;28;20243;-48
2023/06/12 08:14:54;;;;;;;7.17;4.10;;;;;;;15.99;62.80;97854.94;6220874;28;20231;-47
2023/06/12 08:17:57;;;;;;;3.87;3.43;;;;;;;15.98;65.11;97858.72;6218540;28;20289;-46
2023/06/12 08:20:59;;;;;;;4.23;3.83;;;;;;;15.99;63.69;97857.63;6224032;28;20243;-45
2023/06/12 08:24:02;;;;;;;5.80;3.90;;;;;;;16.05;65.10;97861.91;6222029;28;20772;-46
2023/06/12 08:27:05;;;;;;;4.13;3.60;;;;;;;16.04;65.13;97862.19;6236492;28;20670;-45
2023/06/12 08:30:08;;;;;;;4.23;3.57;;;;;;;15.93;65.82;97858.72;6220855;28;20242;-47
2023/06/12 08:33:10;;;;;;;4.70;3.93;;;;;;;15.90;66.59;97856.56;6213373;28;20211;-47
2023/06/12 08:36:13;;;;;;;4.73;3.80;;;;;;;16.00;65.71;97859.22;6247092;28;20253;-47
2023/06/12 08:39:15;;;;;;;5.53;3.50;;;;;;;16.25;66.90;97859.19;6244649;28;20258;-48
2023/06/12 08:42:21;;;;;;;6.50;4.30;;;;;;;16.26;65.33;97827.72;6226593;28;20222;-47
2023/06/12 08:45:26;;;;;;;5.93;4.10;;;;;;;16.38;68.48;97868.53;6242351;28;20224;-45
2023/06/12 08:48:30;;;;;;;3.90;3.50;;;;;;;16.08;65.63;97853.31;6238030;28;20322;-49
2023/06/12 08:51:32;;;;;;;4.10;3.70;;;;;;;16.10;66.13;97866.47;6245622;28;20736;-48
2023/06/12 08:54:40;;;;;;;6.80;3.87;;;;;;;16.01;67.82;97868.94;6246074;28;20247;-50
2023/06/12 08:57:43;;;;;;;4.60;3.30;;;;;;;16.05;68.49;97871.84;6242901;28;20320;-49
2023/06/12 09:00:46;;;;;;;4.30;3.90;;;;;;;16.14;67.25;97870.22;6242713;28;20701;-47
2023/06/12 09:03:54;;;;;;;4.07;3.67;;;;;;;15.98;69.46;97875.63;6244086;28;20261;-49
2023/06/12 09:07:03;;;;;;;5.13;4.40;;;;;;;15.81;68.07;97861.72;6237919;28;20237;-48
2023/06/12 09:10:05;;;;;;;6.53;3.97;;;;;;;15.65;69.10;97860.91;6242059;28;20243;-46
2023/06/12 09:13:16;;;;;;;5.30;3.80;;;;;;;15.97;73.55;97871.34;6239255;28;20230;-48
2023/06/12 09:16:18;;;;;;;3.90;3.50;;;;;;;16.02;72.81;97857.09;6242658;28;20319;-47
2023/06/12 09:19:24;;;;;;;4.13;3.43;;;;;;;16.17;70.67;97875.88;6242325;28;20330;-49
2023/06/12 09:22:27;;;;;;;4.10;3.40;;;;;;;16.28;69.69;97862.41;6240761;28;20238;-46
2023/06/12 09:25:35;;;;;;;4.30;3.77;;;;;;;16.69;65.92;97863.81;6207104;28;20709;-46
2023/06/12 09:28:41;;;;;;;6.60;3.83;;;;;;;16.88;66.20;97864.03;6242117;28;20243;-47
2023/06/12 09:31:50;;;;;;;5.13;3.33;;;;;;;17.34;64.69;97863.75;6241175;28;20239;-46
2023/06/12 09:34:53;;;;;;;5.10;3.20;;;;;;;17.06;61.81;97862.59;6240527;28;20280;-51
2023/06/12 09:37:58;;;;;;;3.40;3.10;;;;;;;16.83;63.00;97842.53;6240435;28;20305;-48
2023/06/12 09:41:05;;;;;;;4.50;3.57;;;;;;;17.12;63.09;97858.78;6241383;28;20239;-49
2023/06/12 09:44:07;;;;;;;5.33;3.47;;;;;;;17.34;59.95;97858.38;6241356;28;20766;-48
2023/06/12 09:47:09;;;;;;;6.20;3.50;;;;;;;17.38;58.24;97853.19;6242607;28;20293;-46
2023/06/12 09:50:14;;;;;;;4.50;3.87;;;;;;;17.44;59.43;97849.41;6222059;28;20239;-47
2023/06/12 09:53:36;;;;;;;5.67;3.80;;;;;;;17.30;59.63;97853.81;6240663;28;20226;-48
2023/06/12 09:56:39;;;;;;;4.17;3.57;;;;;;;16.93;60.06;97842.47;6241022;28;20242;-46
2023/06/12 09:59:43;;;;;;;4.90;3.50;;;;;;;16.98;62.57;97838.94;6236737;28;20240;-49
2023/06/12 10:03:00;;;;;;;3.50;3.03;;;;;;;17.16;63.75;97829.41;6224808;28;20234;-45
2023/06/12 10:06:06;;;;;;;4.27;3.40;;;;;;;17.58;58.96;97854.91;6239628;28;20405;-48
2023/06/12 10:09:10;;;;;;;5.80;3.40;;;;;;;17.64;60.36;97851.13;6239488;28;20603;-45
2023/06/12 10:12:14;;;;;;;5.10;3.50;;;;;;;17.67;60.03;97861.31;6241259;28;20216;-46
2023/06/12 10:15:17;;;;;;;3.53;3.23;;;;;;;17.36;58.92;97818.47;6243024;28;20219;-48
2023/06/12 10:18:21;;;;;;;4.90;3.50;;;;;;;17.57;60.27;97851.44;6242415;28;20227;-47
2023/06/12 10:21:24;;;;;;;4.30;3.50;;;;;;;17.46;61.28;97868.78;6241126;28;20227;-46
2023/06/12 10:24:26;;;;;;;3.73;3.00;;;;;;;17.25;61.79;97851.97;6214832;28;20259;-46
2023/06/12 10:27:30;;;;;;;3.73;2.83;;;;;;;17.24;61.28;97853.84;6209945;28;20219;-45
2023/06/12 10:30:32;;;;;;;3.37;3.07;;;;;;;17.46;62.59;97850.72;6241361;28;20239;-48
2023/06/12 10:33:34;;;;;;;3.93;3.13;;;;;;;17.70;57.52;97841.91;6241498;28;20744;-48
2023/06/12 10:36:44;;;;;;;5.03;3.10;;;;;;;17.89;56.31;97842.03;6224194;28;20233;-47
2023/06/12 10:39:47;;;;;;;3.63;2.77;;;;;;;17.65;54.67;97826.59;6238121;28;20227;-49
2023/06/12 10:42:52;;;;;;;9.00;3.50;;;;;;;17.76;57.36;97846.19;6239226;28;20235;-46
2023/06/12 10:45:57;;;;;;;5.60;3.13;;;;;;;18.00;57.75;97830.03;6240672;28;20240;-50
2023/06/12 10:49:05;;;;;;;3.83;2.90;;;;;;;18.35;55.62;97828.81;6237410;28;20313;-46
2023/06/12 10:52:19;;;;;;;4.27;3.10;;;;;;;18.44;54.75;97835.19;6240333;28;20289;-48
2023/06/12 10:55:23;;;;;;;5.37;2.90;;;;;;;18.50;54.81;97828.63;6239093;28;20705;-46
2023/06/12 10:58:25;;;;;;;5.77;3.30;;;;;;;18.14;53.01;97798.59;6236624;28;20827;-49
2023/06/12 11:01:38;;;;;;;4.00;2.80;;;;;;;18.15;55.00;97834.47;6240825;28;20227;-45
2023/06/12 11:04:41;;;;;;;4.13;3.10;;;;;;;17.58;55.12;97753.34;6241874;28;20610;-46
2023/06/12 11:07:44;;;;;;;3.77;2.70;;;;;;;18.20;55.43;97820.91;6239535;28;20739;-47
2023/06/12 11:10:46;;;;;;;3.33;3.03;;;;;;;18.44;54.61;97829.00;6235560;28;20239;-46
2023/06/12 11:13:48;;;;;;;5.83;3.23;;;;;;;18.47;51.75;97818.44;6241433;28;20234;-46
2023/06/12 11:16:57;;;;;;;4.37;3.13;;;;;;;18.31;52.62;97833.19;6218894;28;20254;-48
2023/06/12 11:20:00;;;;;;;4.73;3.33;;;;;;;18.02;52.13;97792.81;6206175;28;20228;-46
2023/06/12 11:23:02;;;;;;;4.87;3.10;;;;;;;18.31;51.22;97820.50;6238985;28;20235;-48
2023/06/12 11:26:07;;;;;;;3.27;2.73;;;;;;;18.45;51.35;97809.00;6237744;28;20906;-47
2023/06/12 11:29:17;;;;;;;5.33;2.70;;;;;;;18.73;52.83;97799.22;6237353;28;20235;-46
2023/06/12 11:32:22;;;;;;;2.70;2.50;;;;;;;18.84;50.94;97799.88;6239440;28;20235;-47
2023/06/12 11:35:24;;;;;;;3.50;2.37;;;;;;;18.81;51.57;97807.44;6237899;28;20235;-47
2023/06/12 11:38:27;;;;;;;3.90;2.77;;;;;;;18.63;48.58;97813.63;6239995;28;20269;-49
2023/06/12 11:41:34;;;;;;;4.20;2.93;;;;;;;18.65;50.67;97789.84;6232402;28;20227;-48
2023/06/12 11:44:40;;;;;;;4.00;2.60;;;;;;;18.80;52.04;97813.16;6240132;28;20316;-49
2023/06/12 11:47:44;;;;;;;2.93;2.73;;;;;;;18.78;49.95;97808.06;6235221;28;20318;-49
2023/06/12 11:50:51;;;;;;;4.50;2.73;;;;;;;18.48;50.67;97809.25;6237359;28;20586;-48
2023/06/12 11:53:59;;;;;;;5.97;2.97;;;;;;;18.64;49.87;97809.84;6235237;28;20236;-48
2023/06/12 11:57:15;;;;;;;3.30;2.60;;;;;;;18.66;47.45;97780.66;6218492;28;20719;-45
2023/06/12 12:00:20;;;;;;;4.40;2.53;;;;;;;18.96;46.37;97789.44;6214174;28;20219;-48
2023/06/12 12:03:23;;;;;;;6.87;3.00;;;;;;;18.67;46.28;97717.53;6237739;28;20701;-46
2023/06/12 12:06:28;;;;;;;5.30;2.87;;;;;;;19.00;51.75;97776.94;6236152;28;20227;-46
2023/06/12 12:09:31;;;;;;;2.80;2.20;;;;;;;18.93;48.88;97796.22;6237437;28;20365;-45
2023/06/12 12:12:45;;;;;;;3.97;2.80;;;;;;;18.76;50.51;97798.63;6237563;28;20223;-47
2023/06/12 12:15:48;;;;;;;3.13;2.30;;;;;;;18.72;49.57;97793.03;6237460;28;20274;-48
2023/06/12 12:18:51;;;;;;;3.27;2.53;;;;;;;18.93;51.40;97792.72;6200951;28;20234;-46
2023/06/12 12:21:55;;;;;;;2.33;2.13;;;;;;;19.22;52.30;97785.25;6237245;28;20243;-48
2023/06/12 12:24:58;;;;;;;3.67;2.23;;;;;;;19.46;50.11;97787.03;6235088;28;20232;-48
2023/06/12 12:28:02;;;;;;;2.53;2.27;;;;;;;19.55;44.41;97764.41;6239302;28;20247;-49
2023/06/12 12:31:05;;;;;;;2.63;1.93;;;;;;;19.68;45.28;97781.78;6233872;28;20247;-49
2023/06/12 12:34:08;;;;;;;3.67;2.20;;;;;;;19.38;46.05;97783.09;6238105;28;20226;-49
2023/06/12 12:37:11;;;;;;;2.50;2.30;;;;;;;19.19;48.21;97788.53;6237701;28;20437;-48
2023/06/12 12:40:14;;;;;;;5.80;2.40;;;;;;;18.90;47.92;97766.31;6237365;28;20599;-49
2023/06/12 12:43:17;;;;;;;4.17;2.60;;;;;;;19.10;49.48;97781.38;6231824;28;20338;-47
2023/06/12 12:46:22;;;;;;;4.10;2.30;;;;;;;19.26;46.71;97751.16;6238969;28;20223;-47
2023/06/12 12:49:24;;;;;;;4.57;2.33;;;;;;;19.68;46.28;97773.66;6235282;28;20238;-47
2023/06/12 12:52:27;;;;;;;4.90;2.53;;;;;;;19.72;42.89;97750.34;6221747;28;20232;-49
2023/06/12 12:55:39;;;;;;;3.43;2.20;;;;;;;19.78;42.84;97762.66;6237367;28;20231;-50
2023/06/12 12:58:42;;;;;;;4.83;2.10;;;;;;;19.83;42.64;97773.38;6237849;28;20223;-48
2023/06/12 13:01:45;;;;;;;5.30;2.77;;;;;;;19.77;43.29;97777.28;6240404;28;20705;-47
2023/06/12 13:04:47;;;;;;;3.03;2.20;;;;;;;19.66;43.04;97775.88;6241581;28;20231;-47
2023/06/12 13:07:49;;;;;;;5.17;2.00;;;;;;;19.59;42.30;97776.25;6243512;28;20271;-47
2023/06/12 13:10:51;;;;;;;4.30;1.97;;;;;;;19.72;42.97;97769.28;6242064;28;20243;-46
2023/06/12 13:13:53;;;;;;;3.90;2.20;;;;;;;19.79;42.47;97771.56;6237102;28;20849;-46
2023/06/12 13:16:57;;;;;;;4.97;2.10;;;;;;;19.95;42.70;97777.47;6237978;28;20701;-47
2023/06/12 13:20:00;;;;;;;6.67;2.23;;;;;;;20.17;41.69;97782.22;6239714;28;20239;-47
2023/06/12 13:23:02;;;;;;;2.97;2.40;;;;;;;20.05;39.11;97778.13;6239930;28;20236;-50
2023/06/12 13:26:04;;;;;;;2.83;2.10;;;;;;;19.82;40.49;97771.78;6241931;28;20612;-50
2023/06/12 13:29:06;;;;;;;3.40;2.30;;;;;;;19.90;40.18;97766.78;6242480;28;20389;-46
2023/06/12 13:32:09;;;;;;;2.83;1.93;;;;;;;19.97;41.00;97775.31;6242148;28;20322;-50
2023/06/12 13:35:11;;;;;;;2.63;1.87;;;;;;;20.19;37.58;97764.56;6236699;28;20618;-49
2023/06/12 13:38:13;;;;;;;3.57;1.87;;;;;;;20.18;36.91;97770.28;6242225;28;20227;-48
2023/06/12 13:41:16;;;;;;;4.60;2.20;;;;;;;19.98;37.12;97763.38;6241085;28;20621;-47
2023/06/12 13:44:19;;;;;;;5.17;2.10;;;;;;;20.01;38.06;97755.47;6225345;28;20229;-49
2023/06/12 13:47:21;;;;;;;2.67;1.70;;;;;;;20.01;41.64;97755.47;6241178;28;20313;-50
2023/06/12 13:50:24;;;;;;;6.33;2.10;;;;;;;19.99;40.17;97752.25;6223690;28;20610;-47
2023/06/12 13:53:29;;;;;;;2.67;1.90;;;;;;;20.11;39.94;97749.06;6242493;28;20807;-50
2023/06/12 13:56:32;;;;;;;4.20;2.10;;;;;;;20.12;44.12;97739.03;6235341;28;20243;-47
2023/06/12 13:59:35;;;;;;;6.00;2.10;;;;;;;20.15;38.30;97755.47;6223079;28;20243;-47
2023/06/12 14:02:37;;;;;;;2.83;1.90;;;;;;;19.85;39.89;97754.16;6241790;28;20235;-49
2023/06/12 14:05:39;;;;;;;2.57;2.00;;;;;;;19.69;42.98;97756.34;6240013;28;20231;-48
2023/06/12 14:08:42;;;;;;;6.70;2.20;;;;;;;19.53;43.96;97750.41;6242894;28;20231;-49
2023/06/12 14:11:44;;;;;;;6.27;2.60;;;;;;;19.33;44.02;97731.84;6239409;28;20223;-50
2023/06/12 14:14:48;;;;;;;5.43;2.70;;;;;;;19.66;43.34;97754.25;6221535;28;20253;-47
2023/06/12 14:17:51;;;;;;;3.40;2.27;;;;;;;19.74;45.02;97744.63;6238966;28;20246;-49
2023/06/12 14:20:55;;;;;;;5.13;2.33;;;;;;;19.70;44.81;97735.53;6241531;28;20397;-46
2023/06/12 14:24:00;;;;;;;5.50;2.20;;;;;;;19.94;42.74;97744.25;6242763;28;20232;-47
2023/06/12 14:27:02;;;;;;;7.37;2.33;;;;;;;20.11;43.75;97743.66;6234345;28;20230;-47